sensor_id;sensor_type;location;lat;lon;timestamp;P1;durP1;ratioP1;P2;durP2;ratioP2
41761;SDS011;27441;50.860;0.258;2023-02-15T00:01:09;0.00;;;0.00;;
41761;SDS011;27441;50.860;0.258;2023-02-15T00:03:36;0.00;;;0.00;;
41761;SDS011;27441;50.860;0.258;2023-02-15T00:06:02;0.00;;;0.00;;
41761;SDS011;27441;50.860;0.258;2023-02-15T00:08:28;0.00;;;0.00;;
41761;SDS011;27441;50.860;0.258;2023-02-15T00:11:07;0.00;;;0.00;;
41761;SDS011;27441;50.860;0.258;2023-02-15T00:13:34;0.00;;;0.00;;
41761;SDS011;27441;50.860;0.258;2023-02-15T00:16:02;0.00;;;0.00;;
41761;SDS011;27441;50.860;0.258;2023-02-15T00:18:29;0.00;;;0.00;;
41761;SDS011;27441;50.860;0.258;2023-02-15T00:20:55;0.00;;;0.00;;
41761;SDS011;27441;50.860;0.258;2023-02-15T00:23:21;0.00;;;0.00;;
41761;SDS011;27441;50.860;0.258;2023-02-15T00:25:47;0.00;;;0.00;;
41761;SDS011;27441;50.860;0.258;2023-02-15T00:28:14;0.00;;;0.00;;
41761;SDS011;27441;50.860;0.258;2023-02-15T00:30:40;0.00;;;0.00;;
41761;SDS011;27441;50.860;0.258;2023-02-15T00:33:06;0.00;;;0.00;;
41761;SDS011;27441;50.860;0.258;2023-02-15T00:35:32;0.00;;;0.00;;
41761;SDS011;27441;50.860;0.258;2023-02-15T00:37:58;0.00;;;0.00;;
41761;SDS011;27441;50.860;0.258;2023-02-15T00:40:24;0.00;;;0.00;;
41761;SDS011;27441;50.860;0.258;2023-02-15T00:42:50;0.00;;;0.00;;
41761;SDS011;27441;50.860;0.258;2023-02-15T00:45:16;0.00;;;0.00;;
41761;SDS011;27441;50.860;0.258;2023-02-15T00:47:42;0.00;;;0.00;;
41761;SDS011;27441;50.860;0.258;2023-02-15T00:50:09;0.00;;;0.00;;
41761;SDS011;27441;50.860;0.258;2023-02-15T00:52:35;0.00;;;0.00;;
41761;SDS011;27441;50.860;0.258;2023-02-15T00:55:01;0.00;;;0.00;;
41761;SDS011;27441;50.860;0.258;2023-02-15T00:57:27;0.00;;;0.00;;
41761;SDS011;27441;50.860;0.258;2023-02-15T00:59:53;0.00;;;0.00;;
41761;SDS011;27441;50.860;0.258;2023-02-15T01:02:19;0.00;;;0.00;;
41761;SDS011;27441;50.860;0.258;2023-02-15T01:04:46;0.00;;;0.00;;
41761;SDS011;27441;50.860;0.258;2023-02-15T01:07:12;0.00;;;0.00;;
41761;SDS011;27441;50.860;0.258;2023-02-15T01:09:38;0.00;;;0.00;;
41761;SDS011;27441;50.860;0.258;2023-02-15T01:12:04;0.00;;;0.00;;
41761;SDS011;27441;50.860;0.258;2023-02-15T01:14:30;0.00;;;0.00;;
41761;SDS011;27441;50.860;0.258;2023-02-15T01:16:56;0.00;;;0.00;;
41761;SDS011;27441;50.860;0.258;2023-02-15T01:19:22;0.00;;;0.00;;
41761;SDS011;27441;50.860;0.258;2023-02-15T01:21:48;0.00;;;0.00;;
41761;SDS011;27441;50.860;0.258;2023-02-15T01:24:14;0.00;;;0.00;;
41761;SDS011;27441;50.860;0.258;2023-02-15T01:26:41;0.00;;;0.00;;
41761;SDS011;27441;50.860;0.258;2023-02-15T01:29:07;0.00;;;0.00;;
41761;SDS011;27441;50.860;0.258;2023-02-15T01:31:33;0.00;;;0.00;;
41761;SDS011;27441;50.860;0.258;2023-02-15T01:33:59;0.00;;;0.00;;
41761;SDS011;27441;50.860;0.258;2023-02-15T01:36:25;0.00;;;0.00;;
41761;SDS011;27441;50.860;0.258;2023-02-15T01:38:51;0.00;;;0.00;;
41761;SDS011;27441;50.860;0.258;2023-02-15T01:41:17;0.00;;;0.00;;
41761;SDS011;27441;50.860;0.258;2023-02-15T01:46:41;0.00;;;0.00;;
41761;SDS011;27441;50.860;0.258;2023-02-15T01:49:10;0.00;;;0.00;;
41761;SDS011;27441;50.860;0.258;2023-02-15T01:51:38;0.00;;;0.00;;
41761;SDS011;27441;50.860;0.258;2023-02-15T01:54:29;0.00;;;0.00;;
41761;SDS011;27441;50.860;0.258;2023-02-15T01:56:54;0.00;;;0.00;;
41761;SDS011;27441;50.860;0.258;2023-02-15T01:59:22;0.00;;;0.00;;
41761;SDS011;27441;50.860;0.258;2023-02-15T02:01:49;0.00;;;0.00;;
41761;SDS011;27441;50.860;0.258;2023-02-15T02:04:25;0.00;;;0.00;;
41761;SDS011;27441;50.860;0.258;2023-02-15T02:06:55;0.00;;;0.00;;
41761;SDS011;27441;50.860;0.258;2023-02-15T02:09:23;0.00;;;0.00;;
41761;SDS011;27441;50.860;0.258;2023-02-15T02:11:49;0.00;;;0.00;;
41761;SDS011;27441;50.860;0.258;2023-02-15T02:14:16;0.00;;;0.00;;
41761;SDS011;27441;50.860;0.258;2023-02-15T02:17:03;0.00;;;0.00;;
41761;SDS011;27441;50.860;0.258;2023-02-15T02:27:29;0.00;;;0.00;;
41761;SDS011;27441;50.860;0.258;2023-02-15T02:37:51;0.00;;;0.00;;
41761;SDS011;27441;50.860;0.258;2023-02-15T02:40:43;0.00;;;0.00;;
41761;SDS011;27441;50.860;0.258;2023-02-15T02:46:10;0.00;;;0.00;;
41761;SDS011;27441;50.860;0.258;2023-02-15T02:48:39;0.00;;;0.00;;
41761;SDS011;27441;50.860;0.258;2023-02-15T02:51:05;0.00;;;0.00;;
41761;SDS011;27441;50.860;0.258;2023-02-15T02:53:31;0.00;;;0.00;;
41761;SDS011;27441;50.860;0.258;2023-02-15T03:01:08;0.00;;;0.00;;
41761;SDS011;27441;50.860;0.258;2023-02-15T03:03:47;0.00;;;0.00;;
41761;SDS011;27441;50.860;0.258;2023-02-15T03:06:16;0.00;;;0.00;;
41761;SDS011;27441;50.860;0.258;2023-02-15T03:08:44;0.90;;;0.90;;
41761;SDS011;27441;50.860;0.258;2023-02-15T03:11:12;0.00;;;0.00;;
41761;SDS011;27441;50.860;0.258;2023-02-15T03:13:38;0.00;;;0.00;;
41761;SDS011;27441;50.860;0.258;2023-02-15T03:16:05;0.00;;;0.00;;
41761;SDS011;27441;50.860;0.258;2023-02-15T03:19:05;0.00;;;0.00;;
41761;SDS011;27441;50.860;0.258;2023-02-15T03:21:38;0.00;;;0.00;;
41761;SDS011;27441;50.860;0.258;2023-02-15T03:24:09;0.00;;;0.00;;
41761;SDS011;27441;50.860;0.258;2023-02-15T03:26:36;0.00;;;0.00;;
41761;SDS011;27441;50.860;0.258;2023-02-15T03:29:03;0.00;;;0.00;;
41761;SDS011;27441;50.860;0.258;2023-02-15T03:31:31;0.00;;;0.00;;
41761;SDS011;27441;50.860;0.258;2023-02-15T03:33:59;0.00;;;0.00;;
41761;SDS011;27441;50.860;0.258;2023-02-15T03:36:32;0.00;;;0.00;;
41761;SDS011;27441;50.860;0.258;2023-02-15T03:41:32;0.00;;;0.00;;
41761;SDS011;27441;50.860;0.258;2023-02-15T03:44:02;0.00;;;0.00;;
41761;SDS011;27441;50.860;0.258;2023-02-15T03:46:32;0.00;;;0.00;;
41761;SDS011;27441;50.860;0.258;2023-02-15T03:49:02;0.00;;;0.00;;
41761;SDS011;27441;50.860;0.258;2023-02-15T03:51:32;0.00;;;0.00;;
41761;SDS011;27441;50.860;0.258;2023-02-15T03:57:14;0.00;;;0.00;;
41761;SDS011;27441;50.860;0.258;2023-02-15T04:00:00;0.00;;;0.00;;
41761;SDS011;27441;50.860;0.258;2023-02-15T04:05:11;50.00;;;38.58;;
41761;SDS011;27441;50.860;0.258;2023-02-15T04:07:37;54.70;;;40.60;;
41761;SDS011;27441;50.860;0.258;2023-02-15T04:10:04;86.55;;;66.63;;
41761;SDS011;27441;50.860;0.258;2023-02-15T04:12:49;67.45;;;46.38;;
41761;SDS011;27441;50.860;0.258;2023-02-15T04:15:15;89.57;;;61.90;;
41761;SDS011;27441;50.860;0.258;2023-02-15T04:18:02;98.85;;;67.55;;
41761;SDS011;27441;50.860;0.258;2023-02-15T04:20:28;0.08;;;0.08;;
41761;SDS011;27441;50.860;0.258;2023-02-15T04:23:13;0.00;;;0.00;;
41761;SDS011;27441;50.860;0.258;2023-02-15T04:25:58;0.00;;;0.00;;
41761;SDS011;27441;50.860;0.258;2023-02-15T04:30:50;0.00;;;0.00;;
41761;SDS011;27441;50.860;0.258;2023-02-15T04:33:16;64.20;;;45.78;;
41761;SDS011;27441;50.860;0.258;2023-02-15T04:35:43;7.93;;;5.50;;
41761;SDS011;27441;50.860;0.258;2023-02-15T04:38:10;80.90;;;58.35;;
41761;SDS011;27441;50.860;0.258;2023-02-15T04:40:36;83.05;;;61.53;;
41761;SDS011;27441;50.860;0.258;2023-02-15T04:43:02;69.50;;;46.50;;
41761;SDS011;27441;50.860;0.258;2023-02-15T04:45:28;74.20;;;49.53;;
41761;SDS011;27441;50.860;0.258;2023-02-15T04:47:54;140.00;;;98.00;;
41761;SDS011;27441;50.860;0.258;2023-02-15T04:50:20;111.25;;;74.95;;
41761;SDS011;27441;50.860;0.258;2023-02-15T04:57:39;78.25;;;56.35;;
41761;SDS011;27441;50.860;0.258;2023-02-15T05:00:05;66.85;;;45.50;;
41761;SDS011;27441;50.860;0.258;2023-02-15T05:02:32;0.03;;;0.03;;
41761;SDS011;27441;50.860;0.258;2023-02-15T05:04:58;0.00;;;0.00;;
41761;SDS011;27441;50.860;0.258;2023-02-15T05:07:24;74.65;;;48.88;;
41761;SDS011;27441;50.860;0.258;2023-02-15T05:09:50;70.30;;;46.47;;
41761;SDS011;27441;50.860;0.258;2023-02-15T05:12:17;88.65;;;60.35;;
41761;SDS011;27441;50.860;0.258;2023-02-15T05:19:35;0.00;;;0.00;;
41761;SDS011;27441;50.860;0.258;2023-02-15T05:27:19;0.00;;;0.00;;
41761;SDS011;27441;50.860;0.258;2023-02-15T05:32:37;64.55;;;47.38;;
41761;SDS011;27441;50.860;0.258;2023-02-15T05:37:29;0.00;;;0.00;;
41761;SDS011;27441;50.860;0.258;2023-02-15T05:39:55;16.05;;;14.50;;
41761;SDS011;27441;50.860;0.258;2023-02-15T05:42:21;52.00;;;39.83;;
41761;SDS011;27441;50.860;0.258;2023-02-15T05:44:47;6.18;;;2.55;;
41761;SDS011;27441;50.860;0.258;2023-02-15T05:52:05;1.70;;;1.65;;
41761;SDS011;27441;50.860;0.258;2023-02-15T06:09:10;34.70;;;31.00;;
41761;SDS011;27441;50.860;0.258;2023-02-15T06:11:36;41.97;;;36.63;;
41761;SDS011;27441;50.860;0.258;2023-02-15T06:21:21;0.00;;;0.00;;
41761;SDS011;27441;50.860;0.258;2023-02-15T06:26:13;1.25;;;0.90;;
41761;SDS011;27441;50.860;0.258;2023-02-15T06:31:06;0.00;;;0.00;;
41761;SDS011;27441;50.860;0.258;2023-02-15T06:40:51;0.00;;;0.00;;
41761;SDS011;27441;50.860;0.258;2023-02-15T06:43:18;31.45;;;28.30;;
41761;SDS011;27441;50.860;0.258;2023-02-15T06:50:37;0.00;;;0.00;;
41761;SDS011;27441;50.860;0.258;2023-02-15T06:55:30;26.10;;;23.60;;
41761;SDS011;27441;50.860;0.258;2023-02-15T07:02:52;0.00;;;0.00;;
41761;SDS011;27441;50.860;0.258;2023-02-15T07:15:14;0.00;;;0.00;;
41761;SDS011;27441;50.860;0.258;2023-02-15T07:27:27;0.00;;;0.00;;
41761;SDS011;27441;50.860;0.258;2023-02-15T07:29:53;25.20;;;23.05;;
41761;SDS011;27441;50.860;0.258;2023-02-15T07:32:19;29.00;;;26.30;;
41761;SDS011;27441;50.860;0.258;2023-02-15T07:51:48;0.10;;;0.10;;
41761;SDS011;27441;50.860;0.258;2023-02-15T08:21:11;0.00;;;0.00;;
41761;SDS011;27441;50.860;0.258;2023-02-15T08:26:04;0.00;;;0.00;;
41761;SDS011;27441;50.860;0.258;2023-02-15T08:33:22;16.02;;;14.93;;
41761;SDS011;27441;50.860;0.258;2023-02-15T08:35:48;29.27;;;26.52;;
41761;SDS011;27441;50.860;0.258;2023-02-15T08:38:14;5.83;;;5.37;;
41761;SDS011;27441;50.860;0.258;2023-02-15T08:45:32;0.00;;;0.00;;
41761;SDS011;27441;50.860;0.258;2023-02-15T08:52:50;0.00;;;0.00;;
41761;SDS011;27441;50.860;0.258;2023-02-15T08:57:42;0.00;;;0.00;;
41761;SDS011;27441;50.860;0.258;2023-02-15T09:00:10;0.00;;;0.00;;
41761;SDS011;27441;50.860;0.258;2023-02-15T09:02:37;0.00;;;0.00;;
41761;SDS011;27441;50.860;0.258;2023-02-15T09:05:03;0.05;;;0.05;;
41761;SDS011;27441;50.860;0.258;2023-02-15T09:09:55;0.00;;;0.00;;
41761;SDS011;27441;50.860;0.258;2023-02-15T09:17:13;16.65;;;15.32;;
41761;SDS011;27441;50.860;0.258;2023-02-15T09:19:39;0.00;;;0.00;;
41761;SDS011;27441;50.860;0.258;2023-02-15T09:22:05;0.80;;;0.60;;
41761;SDS011;27441;50.860;0.258;2023-02-15T09:24:31;0.25;;;0.25;;
41761;SDS011;27441;50.860;0.258;2023-02-15T11:15:34;27.93;;;25.00;;
41761;SDS011;27441;50.860;0.258;2023-02-15T11:18:48;22.50;;;19.97;;
41761;SDS011;27441;50.860;0.258;2023-02-15T11:20:53;34.78;;;26.20;;
41761;SDS011;27441;50.860;0.258;2023-02-15T11:23:20;0.00;;;0.00;;
41761;SDS011;27441;50.860;0.258;2023-02-15T11:30:40;3.10;;;2.80;;
41761;SDS011;27441;50.860;0.258;2023-02-15T11:33:23;25.20;;;15.00;;
41761;SDS011;27441;50.860;0.258;2023-02-15T11:45:35;0.00;;;0.00;;
41761;SDS011;27441;50.860;0.258;2023-02-15T11:48:08;53.92;;;34.08;;
41761;SDS011;27441;50.860;0.258;2023-02-15T12:02:49;0.60;;;0.57;;
41761;SDS011;27441;50.860;0.258;2023-02-15T12:05:17;0.08;;;0.08;;
41761;SDS011;27441;50.860;0.258;2023-02-15T12:08:03;0.00;;;0.00;;
41761;SDS011;27441;50.860;0.258;2023-02-15T12:10:36;0.00;;;0.00;;
41761;SDS011;27441;50.860;0.258;2023-02-15T12:37:25;18.83;;;17.02;;
41761;SDS011;27441;50.860;0.258;2023-02-15T12:39:56;5.40;;;2.45;;
41761;SDS011;27441;50.860;0.258;2023-02-15T12:49:41;91.15;;;64.55;;
41761;SDS011;27441;50.860;0.258;2023-02-15T13:16:38;20.52;;;18.77;;
41761;SDS011;27441;50.860;0.258;2023-02-15T13:21:50;0.00;;;0.00;;
41761;SDS011;27441;50.860;0.258;2023-02-15T13:53:43;4.32;;;4.07;;
41761;SDS011;27441;50.860;0.258;2023-02-15T14:11:29;13.60;;;12.40;;
41761;SDS011;27441;50.860;0.258;2023-02-15T14:36:00;45.15;;;32.05;;
41761;SDS011;27441;50.860;0.258;2023-02-15T14:41:21;24.00;;;22.00;;
41761;SDS011;27441;50.860;0.258;2023-02-15T15:10:48;0.00;;;0.00;;
41761;SDS011;27441;50.860;0.258;2023-02-15T15:50:13;0.00;;;0.00;;
41761;SDS011;27441;50.860;0.258;2023-02-15T16:04:50;0.00;;;0.00;;
41761;SDS011;27441;50.860;0.258;2023-02-15T16:14:35;0.00;;;0.00;;
41761;SDS011;27441;50.860;0.258;2023-02-15T16:17:03;0.95;;;0.75;;
41761;SDS011;27441;50.860;0.258;2023-02-15T16:19:32;0.00;;;0.00;;
41761;SDS011;27441;50.860;0.258;2023-02-15T16:21:59;0.65;;;0.63;;
41761;SDS011;27441;50.860;0.258;2023-02-15T16:41:28;0.20;;;0.20;;
41761;SDS011;27441;50.860;0.258;2023-02-15T16:48:48;0.00;;;0.00;;
41761;SDS011;27441;50.860;0.258;2023-02-15T16:51:18;1.80;;;1.42;;
41761;SDS011;27441;50.860;0.258;2023-02-15T16:53:47;0.00;;;0.00;;
41761;SDS011;27441;50.860;0.258;2023-02-15T17:01:08;3.58;;;3.03;;
41761;SDS011;27441;50.860;0.258;2023-02-15T17:18:24;0.00;;;0.00;;
41761;SDS011;27441;50.860;0.258;2023-02-15T17:30:36;3.42;;;1.30;;
41761;SDS011;27441;50.860;0.258;2023-02-15T17:33:03;0.43;;;0.43;;
41761;SDS011;27441;50.860;0.258;2023-02-15T17:40:32;0.00;;;0.00;;
41761;SDS011;27441;50.860;0.258;2023-02-15T17:45:26;0.00;;;0.00;;
41761;SDS011;27441;50.860;0.258;2023-02-15T17:58:00;0.00;;;0.00;;
41761;SDS011;27441;50.860;0.258;2023-02-15T18:00:27;0.00;;;0.00;;
41761;SDS011;27441;50.860;0.258;2023-02-15T18:03:12;1.50;;;0.90;;
41761;SDS011;27441;50.860;0.258;2023-02-15T18:05:57;0.00;;;0.00;;
41761;SDS011;27441;50.860;0.258;2023-02-15T18:11:26;0.00;;;0.00;;
41761;SDS011;27441;50.860;0.258;2023-02-15T18:38:22;0.00;;;0.00;;
41761;SDS011;27441;50.860;0.258;2023-02-15T18:40:48;0.85;;;0.85;;
41761;SDS011;27441;50.860;0.258;2023-02-15T18:43:15;0.20;;;0.20;;
41761;SDS011;27441;50.860;0.258;2023-02-15T18:45:41;1.40;;;1.30;;
41761;SDS011;27441;50.860;0.258;2023-02-15T18:48:07;0.00;;;0.00;;
41761;SDS011;27441;50.860;0.258;2023-02-15T18:50:34;0.70;;;0.70;;
41761;SDS011;27441;50.860;0.258;2023-02-15T18:53:01;0.80;;;0.80;;
41761;SDS011;27441;50.860;0.258;2023-02-15T18:55:28;2.00;;;1.90;;
41761;SDS011;27441;50.860;0.258;2023-02-15T18:57:56;1.73;;;1.63;;
41761;SDS011;27441;50.860;0.258;2023-02-15T19:02:50;0.00;;;0.00;;
41761;SDS011;27441;50.860;0.258;2023-02-15T19:05:16;0.00;;;0.00;;
41761;SDS011;27441;50.860;0.258;2023-02-15T19:07:42;11.05;;;10.02;;
41761;SDS011;27441;50.860;0.258;2023-02-15T19:10:12;7.53;;;6.88;;
41761;SDS011;27441;50.860;0.258;2023-02-15T19:12:40;0.40;;;0.40;;
41761;SDS011;27441;50.860;0.258;2023-02-15T19:15:12;4.15;;;3.88;;
41761;SDS011;27441;50.860;0.258;2023-02-15T19:17:39;0.00;;;0.00;;
41761;SDS011;27441;50.860;0.258;2023-02-15T19:20:05;2.17;;;2.03;;
41761;SDS011;27441;50.860;0.258;2023-02-15T19:22:32;0.00;;;0.00;;
41761;SDS011;27441;50.860;0.258;2023-02-15T19:24:59;0.00;;;0.00;;
41761;SDS011;27441;50.860;0.258;2023-02-15T19:27:27;0.10;;;0.10;;
41761;SDS011;27441;50.860;0.258;2023-02-15T19:34:51;0.00;;;0.00;;
41761;SDS011;27441;50.860;0.258;2023-02-15T19:39:43;0.00;;;0.00;;
41761;SDS011;27441;50.860;0.258;2023-02-15T19:49:29;1.65;;;1.20;;
41761;SDS011;27441;50.860;0.258;2023-02-15T19:51:55;0.00;;;0.00;;
41761;SDS011;27441;50.860;0.258;2023-02-15T19:59:19;0.25;;;0.25;;
41761;SDS011;27441;50.860;0.258;2023-02-15T20:04:13;0.00;;;0.00;;
41761;SDS011;27441;50.860;0.258;2023-02-15T20:06:42;0.03;;;0.03;;
41761;SDS011;27441;50.860;0.258;2023-02-15T20:16:27;0.00;;;0.00;;
41761;SDS011;27441;50.860;0.258;2023-02-15T20:18:53;0.00;;;0.00;;
41761;SDS011;27441;50.860;0.258;2023-02-15T20:21:19;0.00;;;0.00;;
41761;SDS011;27441;50.860;0.258;2023-02-15T20:23:46;0.10;;;0.10;;
41761;SDS011;27441;50.860;0.258;2023-02-15T20:26:14;0.30;;;0.20;;
41761;SDS011;27441;50.860;0.258;2023-02-15T20:28:42;31.13;;;18.40;;
41761;SDS011;27441;50.860;0.258;2023-02-15T20:31:16;0.90;;;0.50;;
41761;SDS011;27441;50.860;0.258;2023-02-15T20:33:44;0.60;;;0.25;;
41761;SDS011;27441;50.860;0.258;2023-02-15T20:36:14;0.27;;;0.20;;
41761;SDS011;27441;50.860;0.258;2023-02-15T20:38:41;0.00;;;0.00;;
41761;SDS011;27441;50.860;0.258;2023-02-15T20:41:09;15.10;;;8.48;;
41761;SDS011;27441;50.860;0.258;2023-02-15T20:43:56;0.00;;;0.00;;
41761;SDS011;27441;50.860;0.258;2023-02-15T20:46:23;0.00;;;0.00;;
41761;SDS011;27441;50.860;0.258;2023-02-15T20:48:49;0.00;;;0.00;;
41761;SDS011;27441;50.860;0.258;2023-02-15T20:51:15;5.80;;;2.50;;
41761;SDS011;27441;50.860;0.258;2023-02-15T20:53:42;2.30;;;1.60;;
41761;SDS011;27441;50.860;0.258;2023-02-15T20:56:16;0.00;;;0.00;;
41761;SDS011;27441;50.860;0.258;2023-02-15T20:58:43;0.00;;;0.00;;
41761;SDS011;27441;50.860;0.258;2023-02-15T21:01:10;0.00;;;0.00;;
41761;SDS011;27441;50.860;0.258;2023-02-15T21:03:36;0.00;;;0.00;;
41761;SDS011;27441;50.860;0.258;2023-02-15T21:06:05;0.40;;;0.40;;
41761;SDS011;27441;50.860;0.258;2023-02-15T21:08:32;0.00;;;0.00;;
41761;SDS011;27441;50.860;0.258;2023-02-15T21:10:59;0.00;;;0.00;;
41761;SDS011;27441;50.860;0.258;2023-02-15T21:13:28;0.00;;;0.00;;
41761;SDS011;27441;50.860;0.258;2023-02-15T21:15:55;0.00;;;0.00;;
41761;SDS011;27441;50.860;0.258;2023-02-15T21:18:22;0.00;;;0.00;;
41761;SDS011;27441;50.860;0.258;2023-02-15T21:20:50;0.00;;;0.00;;
41761;SDS011;27441;50.860;0.258;2023-02-15T21:23:19;0.00;;;0.00;;
41761;SDS011;27441;50.860;0.258;2023-02-15T21:25:46;0.70;;;0.70;;
41761;SDS011;27441;50.860;0.258;2023-02-15T21:28:17;3.70;;;2.53;;
41761;SDS011;27441;50.860;0.258;2023-02-15T21:30:44;0.90;;;0.60;;
41761;SDS011;27441;50.860;0.258;2023-02-15T21:33:10;0.00;;;0.00;;
41761;SDS011;27441;50.860;0.258;2023-02-15T21:35:36;0.00;;;0.00;;
41761;SDS011;27441;50.860;0.258;2023-02-15T21:38:02;0.00;;;0.00;;
41761;SDS011;27441;50.860;0.258;2023-02-15T21:40:29;0.00;;;0.00;;
41761;SDS011;27441;50.860;0.258;2023-02-15T21:42:56;0.00;;;0.00;;
41761;SDS011;27441;50.860;0.258;2023-02-15T21:45:41;0.00;;;0.00;;
41761;SDS011;27441;50.860;0.258;2023-02-15T21:48:39;0.00;;;0.00;;
41761;SDS011;27441;50.860;0.258;2023-02-15T21:51:05;0.00;;;0.00;;
41761;SDS011;27441;50.860;0.258;2023-02-15T21:54:10;0.00;;;0.00;;
41761;SDS011;27441;50.860;0.258;2023-02-15T21:56:37;0.00;;;0.00;;
41761;SDS011;27441;50.860;0.258;2023-02-15T21:59:11;0.00;;;0.00;;
41761;SDS011;27441;50.860;0.258;2023-02-15T22:01:39;0.00;;;0.00;;
41761;SDS011;27441;50.860;0.258;2023-02-15T22:04:10;0.00;;;0.00;;
41761;SDS011;27441;50.860;0.258;2023-02-15T22:06:38;0.00;;;0.00;;
41761;SDS011;27441;50.860;0.258;2023-02-15T22:09:11;0.00;;;0.00;;
41761;SDS011;27441;50.860;0.258;2023-02-15T22:11:38;0.00;;;0.00;;
41761;SDS011;27441;50.860;0.258;2023-02-15T22:14:04;0.00;;;0.00;;
41761;SDS011;27441;50.860;0.258;2023-02-15T22:16:30;0.00;;;0.00;;
41761;SDS011;27441;50.860;0.258;2023-02-15T22:18:56;0.00;;;0.00;;
41761;SDS011;27441;50.860;0.258;2023-02-15T22:21:23;0.00;;;0.00;;
41761;SDS011;27441;50.860;0.258;2023-02-15T22:23:50;0.00;;;0.00;;
41761;SDS011;27441;50.860;0.258;2023-02-15T22:26:21;0.00;;;0.00;;
41761;SDS011;27441;50.860;0.258;2023-02-15T22:28:48;0.00;;;0.00;;
41761;SDS011;27441;50.860;0.258;2023-02-15T22:31:14;0.00;;;0.00;;
41761;SDS011;27441;50.860;0.258;2023-02-15T22:33:43;0.00;;;0.00;;
41761;SDS011;27441;50.860;0.258;2023-02-15T22:36:21;0.00;;;0.00;;
41761;SDS011;27441;50.860;0.258;2023-02-15T22:38:47;0.00;;;0.00;;
41761;SDS011;27441;50.860;0.258;2023-02-15T22:41:13;0.00;;;0.00;;
41761;SDS011;27441;50.860;0.258;2023-02-15T22:43:40;27.02;;;24.42;;
41761;SDS011;27441;50.860;0.258;2023-02-15T22:46:26;16.30;;;15.00;;
41761;SDS011;27441;50.860;0.258;2023-02-15T22:48:52;0.00;;;0.00;;
41761;SDS011;27441;50.860;0.258;2023-02-15T22:51:20;0.00;;;0.00;;
41761;SDS011;27441;50.860;0.258;2023-02-15T22:53:46;0.00;;;0.00;;
41761;SDS011;27441;50.860;0.258;2023-02-15T22:56:23;0.00;;;0.00;;
41761;SDS011;27441;50.860;0.258;2023-02-15T22:58:58;0.00;;;0.00;;
41761;SDS011;27441;50.860;0.258;2023-02-15T23:01:27;0.00;;;0.00;;
41761;SDS011;27441;50.860;0.258;2023-02-15T23:03:54;1.90;;;1.80;;
41761;SDS011;27441;50.860;0.258;2023-02-15T23:06:20;0.00;;;0.00;;
41761;SDS011;27441;50.860;0.258;2023-02-15T23:08:46;0.00;;;0.00;;
41761;SDS011;27441;50.860;0.258;2023-02-15T23:11:12;0.00;;;0.00;;
41761;SDS011;27441;50.860;0.258;2023-02-15T23:13:38;24.15;;;21.63;;
41761;SDS011;27441;50.860;0.258;2023-02-15T23:16:05;18.38;;;16.90;;
41761;SDS011;27441;50.860;0.258;2023-02-15T23:18:38;0.00;;;0.00;;
41761;SDS011;27441;50.860;0.258;2023-02-15T23:21:09;0.00;;;0.00;;
41761;SDS011;27441;50.860;0.258;2023-02-15T23:23:41;13.85;;;12.23;;
41761;SDS011;27441;50.860;0.258;2023-02-15T23:26:26;0.00;;;0.00;;
41761;SDS011;27441;50.860;0.258;2023-02-15T23:28:53;1.50;;;1.40;;
41761;SDS011;27441;50.860;0.258;2023-02-15T23:31:21;9.23;;;8.38;;
41761;SDS011;27441;50.860;0.258;2023-02-15T23:33:48;11.73;;;10.52;;
41761;SDS011;27441;50.860;0.258;2023-02-15T23:36:29;9.65;;;9.00;;
41761;SDS011;27441;50.860;0.258;2023-02-15T23:38:56;0.10;;;0.10;;
41761;SDS011;27441;50.860;0.258;2023-02-15T23:41:23;26.15;;;23.33;;
41761;SDS011;27441;50.860;0.258;2023-02-15T23:46:24;8.30;;;7.60;;
41761;SDS011;27441;50.860;0.258;2023-02-15T23:48:51;0.00;;;0.00;;
41761;SDS011;27441;50.860;0.258;2023-02-15T23:51:18;4.70;;;4.30;;
41761;SDS011;27441;50.860;0.258;2023-02-15T23:53:44;0.00;;;0.00;;
41761;SDS011;27441;50.860;0.258;2023-02-15T23:56:11;0.00;;;0.00;;
41761;SDS011;27441;50.860;0.258;2023-02-15T23:58:38;0.00;;;0.00;;
